Time;durP1;ratioP1;P1;durP2;ratioP2;P2;SDS_P1;SDS_P2;PMS_P1;PMS_P2;Temp;Humidity;BMP_temperature;BMP_pressure;BME280_temperature;BME280_humidity;BME280_pressure;Samples;Min_cycle;Max_cycle;Signal;HPM_P1;HPM_P2
2021/07/22 00:01:01;;;;;;;;;0.00;0.00;;;;;28.95;75.65;101580.53;5042246;28;45387;-64
2021/07/22 00:03:26;;;;;;;;;0.00;0.00;;;;;29.00;75.50;101583.38;5041580;28;47446;-64
2021/07/22 00:05:52;;;;;;;;;0.00;0.00;;;;;29.13;75.07;101577.88;5041368;28;52221;-62
2021/07/22 00:08:17;;;;;;;;;0.00;0.00;;;;;29.19;75.50;101578.88;5041481;28;45234;-64
2021/07/22 00:10:42;;;;;;;;;0.00;0.00;;;;;29.20;75.37;101573.25;5042128;28;45209;-63
2021/07/22 00:13:07;;;;;;;;;0.00;0.00;;;;;29.15;75.44;101581.19;5041414;28;53573;-64
2021/07/22 00:15:33;;;;;;;;;0.00;0.00;;;;;29.22;74.82;101578.44;5045888;28;46593;-64
2021/07/22 00:17:59;;;;;;;;;0.00;0.00;;;;;29.24;74.67;101577.19;5023570;28;45520;-64
2021/07/22 00:20:25;;;;;;;;;0.00;0.00;;;;;29.24;75.70;101579.88;5033330;28;45370;-64
2021/07/22 00:22:50;;;;;;;;;0.00;0.00;;;;;29.25;75.34;101575.28;5041407;28;46460;-64
2021/07/22 00:25:16;;;;;;;;;0.00;0.00;;;;;29.27;75.06;101578.59;5041919;28;45149;-64
2021/07/22 00:27:41;;;;;;;;;0.00;0.00;;;;;29.09;75.39;101576.66;5041554;28;45419;-64
2021/07/22 00:30:08;;;;;;;;;0.00;0.00;;;;;29.08;75.45;101583.13;5042118;28;45493;-64
2021/07/22 00:32:34;;;;;;;;;0.00;0.00;;;;;28.81;76.60;101580.66;5041298;28;46370;-64
2021/07/22 00:34:59;;;;;;;;;0.00;0.00;;;;;28.60;76.70;101583.72;5041427;28;45349;-64
2021/07/22 00:37:24;;;;;;;;;0.75;0.75;;;;;28.89;76.40;101582.22;5041500;28;45335;-64
2021/07/22 00:39:50;;;;;;;;;0.00;0.00;;;;;28.63;77.37;101578.69;5041810;28;45432;-64
2021/07/22 00:42:15;;;;;;;;;0.00;0.00;;;;;28.56;77.50;101585.19;5041347;28;46425;-64
2021/07/22 00:44:40;;;;;;;;;0.00;0.00;;;;;29.01;76.39;101587.78;5041131;28;45376;-64
2021/07/22 00:47:06;;;;;;;;;0.00;0.00;;;;;29.07;75.13;101591.44;5050592;28;45248;-64
2021/07/22 00:49:31;;;;;;;;;0.00;0.00;;;;;28.96;75.68;101582.19;5041160;28;46454;-64
2021/07/22 00:51:56;;;;;;;;;0.00;0.00;;;;;29.05;76.21;101588.97;5040990;28;45449;-64
2021/07/22 00:54:22;;;;;;;;;0.00;0.00;;;;;28.97;76.04;101579.25;5040971;28;45150;-64
2021/07/22 00:56:47;;;;;;;;;0.00;0.00;;;;;28.82;76.98;101584.16;5041035;28;49799;-63
2021/07/22 00:59:12;;;;;;;;;0.00;0.00;;;;;28.88;76.88;101585.16;5041299;28;45298;-63
2021/07/22 01:01:38;;;;;;;;;0.00;0.00;;;;;28.46;78.41;101577.53;5041037;28;49669;-64
2021/07/22 01:04:03;;;;;;;;;0.00;0.00;;;;;28.73;77.49;101577.38;5047573;28;45432;-64
2021/07/22 01:06:28;;;;;;;;;0.00;0.00;;;;;28.45;77.82;101575.06;5041095;28;45404;-64
2021/07/22 01:08:54;;;;;;;;;0.00;0.00;;;;;28.80;77.49;101583.56;5041013;28;45160;-65
2021/07/22 01:11:19;;;;;;;;;0.00;0.00;;;;;28.33;78.94;101578.44;5023242;28;45336;-64
2021/07/22 01:13:44;;;;;;;;;0.00;0.00;;;;;28.33;78.82;101581.13;5041163;28;45456;-64
2021/07/22 01:16:10;;;;;;;;;0.00;0.00;;;;;28.49;77.84;101582.53;5038266;28;45155;-64
2021/07/22 01:18:35;;;;;;;;;0.00;0.00;;;;;28.29;79.22;101585.31;5041827;28;45422;-64
2021/07/22 01:21:01;;;;;;;;;0.00;0.00;;;;;28.26;78.50;101579.53;5043360;28;46411;-64
2021/07/22 01:23:26;;;;;;;;;0.00;0.00;;;;;28.61;77.64;101577.25;5044576;28;47998;-64
2021/07/22 01:25:51;;;;;;;;;0.00;0.00;;;;;28.62;78.34;101589.72;5044598;28;45715;-64
2021/07/22 01:28:17;;;;;;;;;0.00;0.00;;;;;28.46;77.81;101582.09;5044832;28;45323;-65
2021/07/22 01:30:42;;;;;;;;;0.00;0.00;;;;;28.58;77.37;101585.81;5044083;28;45629;-64
2021/07/22 01:33:08;;;;;;;;;0.00;0.00;;;;;28.27;78.96;101587.41;5045678;28;45330;-64
2021/07/22 01:35:33;;;;;;;;;0.00;0.00;;;;;28.13;79.70;101581.25;5044265;28;45353;-64
2021/07/22 01:37:58;;;;;;;;;1.00;0.25;;;;;28.42;78.46;101587.97;5044719;28;45406;-64
2021/07/22 01:40:24;;;;;;;;;0.00;0.00;;;;;28.46;77.80;101579.41;5044019;28;55106;-65
2021/07/22 01:42:49;;;;;;;;;0.00;0.00;;;;;28.34;79.32;101579.28;5026434;28;45310;-64
2021/07/22 01:45:14;;;;;;;;;0.00;0.00;;;;;28.31;78.71;101587.81;5044363;28;45289;-64
2021/07/22 01:47:41;;;;;;;;;0.00;0.00;;;;;28.30;78.93;101580.75;5044278;28;45300;-64
2021/07/22 01:50:07;;;;;;;;;0.00;0.00;;;;;28.16;78.73;101580.81;5043969;28;47101;-64
2021/07/22 01:52:33;;;;;;;;;0.00;0.00;;;;;28.19;79.25;101580.38;5044254;28;45161;-64
2021/07/22 01:54:58;;;;;;;;;0.00;0.00;;;;;27.89;80.26;101579.28;5044267;28;45311;-64
2021/07/22 01:57:24;;;;;;;;;0.00;0.00;;;;;28.09;80.03;101579.19;5044161;28;45250;-64
2021/07/22 01:59:50;;;;;;;;;0.00;0.00;;;;;28.01;80.33;101573.00;5043837;28;45645;-65
2021/07/22 02:02:15;;;;;;;;;0.00;0.00;;;;;27.97;79.87;101577.19;5043838;28;45249;-65
2021/07/22 02:04:42;;;;;;;;;0.00;0.00;;;;;27.92;80.89;101578.84;5043668;28;45521;-65
2021/07/22 02:07:10;;;;;;;;;0.00;0.00;;;;;27.92;80.34;101576.16;5044146;28;45467;-64
2021/07/22 02:09:35;;;;;;;;;0.00;0.00;;;;;27.88;80.22;101577.63;5055121;28;45325;-64
2021/07/22 02:12:01;;;;;;;;;0.00;0.00;;;;;27.82;80.68;101574.72;5043106;28;53318;-64
2021/07/22 02:14:27;;;;;;;;;0.00;0.00;;;;;27.81;81.05;101566.81;5043688;28;45308;-64
2021/07/22 02:16:52;;;;;;;;;0.00;0.00;;;;;27.50;81.83;101576.47;5034677;28;45439;-64
2021/07/22 02:19:18;;;;;;;;;0.00;0.00;;;;;27.81;81.07;101566.81;5039391;28;46432;-64
2021/07/22 02:21:44;;;;;;;;;0.00;0.00;;;;;27.77;82.10;101574.50;5043472;28;46332;-64
2021/07/22 02:24:11;;;;;;;;;0.00;0.00;;;;;27.69;82.79;101568.50;5043741;28;45315;-63
2021/07/22 02:26:37;;;;;;;;;0.00;0.00;;;;;27.59;83.34;101571.69;5034637;28;45445;-64
2021/07/22 02:29:04;;;;;;;;;0.00;0.00;;;;;27.21;84.91;101569.63;5047189;28;45265;-64
2021/07/22 02:31:29;;;;;;;;;0.00;0.00;;;;;27.41;83.67;101572.34;5043220;28;45328;-64
2021/07/22 02:33:54;;;;;;;;;0.00;0.00;;;;;27.10;84.29;101575.66;5043314;28;45459;-64
2021/07/22 02:36:20;;;;;;;;;0.00;0.00;;;;;26.92;86.21;101571.72;5043857;28;45346;-63
2021/07/22 02:38:45;;;;;;;;;0.00;0.00;;;;;26.82;85.60;101565.09;5043189;28;45533;-64
2021/07/22 02:41:11;;;;;;;;;0.00;0.00;;;;;26.82;86.27;101565.91;5043409;28;45315;-64
2021/07/22 02:43:36;;;;;;;;;0.00;0.00;;;;;26.78;86.27;101570.91;5049308;28;45815;-64
2021/07/22 02:46:11;;;;;;;;;0.00;0.00;;;;;26.80;86.85;101576.94;5043547;28;45363;-64
2021/07/22 02:48:36;;;;;;;;;0.00;0.00;;;;;26.82;86.77;101570.47;5043091;28;46392;-64
2021/07/22 02:51:07;;;;;;;;;3.00;0.00;;;;;26.82;86.58;101575.88;5025132;28;45260;-64
2021/07/22 02:53:34;;;;;;;;;0.00;0.00;;;;;26.87;86.64;101576.06;5025412;28;45370;-64
2021/07/22 02:56:00;;;;;;;;;0.00;0.00;;;;;26.88;86.32;101575.88;5043640;28;45257;-64
2021/07/22 02:58:26;;;;;;;;;0.00;0.00;;;;;27.19;86.23;101572.56;5042882;28;45651;-64
2021/07/22 03:00:52;;;;;;;;;0.00;0.00;;;;;27.22;85.19;101575.91;5050213;28;45446;-64
2021/07/22 03:03:17;;;;;;;;;0.00;0.00;;;;;26.82;87.08;101579.38;5046204;28;45252;-64
2021/07/22 03:05:42;;;;;;;;;0.00;0.00;;;;;26.69;88.23;101577.50;5043252;28;45221;-64
2021/07/22 03:08:08;;;;;;;;;1.00;0.00;;;;;26.62;87.46;101582.06;5042861;28;45340;-64
2021/07/22 03:10:33;;;;;;;;;0.00;0.00;;;;;26.56;87.88;101580.19;5043098;28;45262;-64
2021/07/22 03:12:59;;;;;;;;;0.00;0.00;;;;;26.80;87.12;101579.63;5042835;28;45674;-64
2021/07/22 03:15:24;;;;;;;;;0.00;0.00;;;;;26.61;86.65;101583.13;5043311;28;45265;-64
2021/07/22 03:17:49;;;;;;;;;0.00;0.00;;;;;26.75;87.79;101582.09;5029483;28;45292;-64
2021/07/22 03:20:15;;;;;;;;;0.00;0.00;;;;;26.78;87.64;101586.22;5053002;28;45374;-64
2021/07/22 03:22:41;;;;;;;;;2.25;2.25;;;;;26.79;86.30;101575.25;5042799;28;45489;-65
2021/07/22 03:25:07;;;;;;;;;0.00;0.00;;;;;26.50;88.10;101579.13;5042589;28;45331;-64
2021/07/22 03:27:32;;;;;;;;;0.00;0.00;;;;;26.47;89.34;101581.41;5042635;28;46549;-64
2021/07/22 03:29:58;;;;;;;;;0.00;0.00;;;;;26.40;88.21;101578.69;5042675;28;45303;-63
2021/07/22 03:32:23;;;;;;;;;0.00;0.00;;;;;26.45;89.12;101580.78;5042716;28;45309;-64
2021/07/22 03:34:49;;;;;;;;;0.00;0.00;;;;;26.41;87.75;101583.03;5042665;28;45315;-64
2021/07/22 03:37:14;;;;;;;;;0.00;0.00;;;;;26.36;88.34;101572.88;5053328;28;46566;-64
2021/07/22 03:39:40;;;;;;;;;0.00;0.00;;;;;26.74;87.63;101585.00;5042255;28;45455;-64
2021/07/22 03:42:06;;;;;;;;;0.00;0.00;;;;;26.90;86.54;101583.75;5042348;28;45265;-64
2021/07/22 03:44:31;;;;;;;;;0.00;0.00;;;;;26.94;86.32;101576.91;5042430;28;45430;-64
2021/07/22 03:46:57;;;;;;;;;0.00;0.00;;;;;26.92;86.02;101579.00;5042412;28;46630;-64
2021/07/22 03:49:22;;;;;;;;;0.00;0.00;;;;;26.87;86.41;101576.06;5042169;28;45262;-64
2021/07/22 03:51:47;;;;;;;;;0.00;0.00;;;;;26.86;86.64;101577.13;5042607;28;45301;-64
2021/07/22 03:54:14;;;;;;;;;0.00;0.00;;;;;26.87;86.34;101581.47;5049939;28;45240;-64
2021/07/22 03:56:40;;;;;;;;;0.00;0.00;;;;;26.84;86.60;101581.88;5046582;28;46287;-64
2021/07/22 03:59:05;;;;;;;;;0.00;0.00;;;;;26.82;86.81;101576.69;5042067;28;45256;-64
2021/07/22 04:01:31;;;;;;;;;0.00;0.00;;;;;26.67;87.91;101576.06;5042304;28;46391;-64
2021/07/22 04:03:56;;;;;;;;;0.00;0.00;;;;;26.43;88.67;101580.97;5042172;28;45518;-64
2021/07/22 04:06:21;;;;;;;;;0.00;0.00;;;;;26.39;88.45;101579.72;5042049;28;46536;-65
2021/07/22 04:08:47;;;;;;;;;0.00;0.00;;;;;26.57;88.03;101571.91;5041998;28;45359;-65
2021/07/22 04:11:12;;;;;;;;;0.00;0.00;;;;;26.38;88.69;101575.38;5045608;28;45443;-65
2021/07/22 04:13:38;;;;;;;;;0.00;0.00;;;;;26.58;88.37;101573.56;5042459;28;45516;-65
2021/07/22 04:16:03;;;;;;;;;0.00;0.00;;;;;26.44;88.82;101573.75;5039806;28;45414;-65
2021/07/22 04:18:30;;;;;;;;;0.00;0.00;;;;;26.72;87.10;101570.91;5030128;28;45356;-65
2021/07/22 04:20:55;;;;;;;;;0.00;0.00;;;;;26.43;88.29;101578.28;5024091;28;45510;-65
2021/07/22 04:23:21;;;;;;;;;0.00;0.00;;;;;26.38;88.91;101580.75;5042184;28;45492;-65
2021/07/22 04:25:46;;;;;;;;;0.00;0.00;;;;;26.38;89.31;101580.75;5023851;28;45446;-64
2021/07/22 04:28:12;;;;;;;;;0.00;0.00;;;;;26.32;89.33;101578.88;5044936;28;45182;-64
2021/07/22 04:30:38;;;;;;;;;0.00;0.00;;;;;26.52;88.00;101574.38;5041220;28;45468;-64
2021/07/22 04:33:03;;;;;;;;;0.00;0.00;;;;;26.24;90.66;101582.59;5041923;28;45284;-64
2021/07/22 04:35:29;;;;;;;;;0.00;0.00;;;;;26.29;89.85;101580.13;5041313;28;46516;-64
2021/07/22 04:37:54;;;;;;;;;0.00;0.00;;;;;26.24;89.86;101582.59;5041512;28;45276;-64
2021/07/22 04:40:19;;;;;;;;;0.00;0.00;;;;;26.17;90.71;101587.09;5041660;28;45155;-65
2021/07/22 04:42:45;;;;;;;;;0.00;0.00;;;;;26.47;89.24;101587.59;5041935;28;45270;-64
2021/07/22 04:45:10;;;;;;;;;0.00;0.00;;;;;26.47;89.53;101586.78;5040812;28;53464;-64
2021/07/22 04:47:36;;;;;;;;;0.00;0.00;;;;;26.64;88.15;101596.19;5041365;28;45238;-65
2021/07/22 04:50:01;;;;;;;;;0.00;0.00;;;;;26.29;89.76;101598.13;5041257;28;45382;-64
2021/07/22 04:52:27;;;;;;;;;0.00;0.00;;;;;26.27;89.87;101601.03;5041484;28;45486;-64
2021/07/22 04:54:52;;;;;;;;;0.00;0.00;;;;;26.27;90.37;101598.34;5040287;28;45291;-65
2021/07/22 04:57:17;;;;;;;;;0.00;0.00;;;;;26.25;90.67;101595.00;5041187;28;45292;-64
2021/07/22 04:59:43;;;;;;;;;0.00;0.00;;;;;26.24;90.20;101600.59;5041618;28;45382;-64
2021/07/22 05:02:08;;;;;;;;;0.00;0.00;;;;;26.59;88.78;101607.56;5053971;28;45524;-65
2021/07/22 05:04:33;;;;;;;;;1.00;1.00;;;;;26.68;88.53;101608.19;5040519;28;46269;-65
2021/07/22 05:06:59;;;;;;;;;0.00;0.00;;;;;26.66;88.82;101602.19;5041269;28;45287;-64
2021/07/22 05:09:24;;;;;;;;;0.00;0.00;;;;;26.73;88.20;101607.59;5041100;28;45292;-64
2021/07/22 05:11:49;;;;;;;;;0.00;0.00;;;;;26.70;88.03;101603.44;5041140;28;45227;-65
2021/07/22 05:14:15;;;;;;;;;0.00;0.00;;;;;26.75;87.73;101608.22;5040591;28;46260;-66
2021/07/22 05:16:40;;;;;;;;;0.00;0.00;;;;;26.73;87.79;101599.50;5034631;28;45311;-65
2021/07/22 05:19:05;;;;;;;;;0.00;0.00;;;;;26.80;87.86;101608.41;5020923;28;45290;-65
2021/07/22 05:21:31;;;;;;;;;0.00;0.00;;;;;26.80;87.65;101617.34;5041148;28;45566;-65
2021/07/22 05:23:56;;;;;;;;;0.00;0.00;;;;;26.79;88.00;101606.78;5041001;28;46150;-65
2021/07/22 05:26:21;;;;;;;;;0.00;0.00;;;;;26.81;88.03;101610.09;5040929;28;45379;-65
2021/07/22 05:28:46;;;;;;;;;0.00;0.00;;;;;26.80;87.69;101611.09;5041006;28;45483;-65
2021/07/22 05:31:12;;;;;;;;;0.00;0.00;;;;;26.80;87.36;101611.09;5041010;28;45565;-65
2021/07/22 05:33:40;;;;;;;;;0.00;0.00;;;;;26.85;87.23;101613.22;5043444;28;46495;-65
2021/07/22 05:36:07;;;;;;;;;0.00;0.00;;;;;26.91;86.52;101607.81;5040707;28;45264;-65
2021/07/22 05:38:34;;;;;;;;;0.00;0.00;;;;;26.95;86.57;101619.00;5040545;28;45447;-65
2021/07/22 05:41:01;;;;;;;;;0.00;0.00;;;;;26.95;86.42;101619.81;5040747;28;45263;-65
2021/07/22 05:43:27;;;;;;;;;0.00;0.00;;;;;26.92;86.03;101612.16;5040346;28;46612;-65
2021/07/22 05:45:53;;;;;;;;;0.00;0.00;;;;;26.93;85.90;101610.28;5040368;28;45233;-65
2021/07/22 05:48:19;;;;;;;;;0.00;0.00;;;;;26.95;86.18;101617.13;5047688;28;45312;-64
2021/07/22 05:50:44;;;;;;;;;0.00;0.00;;;;;26.96;85.29;101613.41;5040738;28;45289;-64
2021/07/22 05:53:09;;;;;;;;;0.00;0.00;;;;;27.00;85.98;101611.16;5040157;28;46288;-64
2021/07/22 05:55:34;;;;;;;;;0.00;0.00;;;;;27.03;85.59;101608.03;5021787;28;57158;-65
2021/07/22 05:58:00;;;;;;;;;0.00;0.00;;;;;27.13;85.47;101616.53;5040546;28;45241;-64
2021/07/22 06:00:25;;;;;;;;;0.00;0.00;;;;;27.18;85.32;101607.81;5040331;28;45240;-64
2021/07/22 06:02:50;;;;;;;;;0.00;0.00;;;;;27.18;85.05;101608.63;5039552;28;47914;-64
2021/07/22 06:05:16;;;;;;;;;0.00;0.00;;;;;27.26;85.25;101614.88;5044322;28;45149;-66
2021/07/22 06:07:41;;;;;;;;;0.00;0.00;;;;;27.29;85.18;101607.22;5043304;28;45174;-67
2021/07/22 06:10:07;;;;;;;;;0.00;0.00;;;;;27.41;84.72;101612.81;5039633;28;45533;-64
2021/07/22 06:12:32;;;;;;;;;0.00;0.00;;;;;27.54;83.88;101615.47;5041816;28;45360;-63
2021/07/22 06:14:57;;;;;;;;;0.00;0.00;;;;;27.79;83.54;101615.59;5030470;28;45801;-63
2021/07/22 06:17:23;;;;;;;;;0.25;0.25;;;;;28.29;82.93;101616.91;5035485;28;45300;-63
2021/07/22 06:19:49;;;;;;;;;0.00;0.00;;;;;28.78;81.39;101610.81;5038044;28;45583;-65
2021/07/22 06:22:14;;;;;;;;;0.00;0.00;;;;;29.24;80.10;101615.06;5023823;28;46305;-63
2021/07/22 06:24:39;;;;;;;;;0.00;0.00;;;;;29.66;79.76;101614.44;5042071;28;45278;-64
2021/07/22 06:27:05;;;;;;;;;0.00;0.00;;;;;30.14;78.20;101615.56;5041708;28;45267;-63
2021/07/22 06:29:30;;;;;;;;;0.00;0.00;;;;;30.53;76.99;101611.47;5025723;28;45485;-64
2021/07/22 06:31:56;;;;;;;;;0.00;0.00;;;;;30.88;75.96;101609.94;5035916;28;45531;-63
2021/07/22 06:34:21;;;;;;;;;0.00;0.00;;;;;31.25;73.50;101610.56;5040203;28;45399;-64
2021/07/22 06:36:46;;;;;;;;;0.00;0.00;;;;;31.75;72.42;101611.94;5026421;28;46539;-70
2021/07/22 06:39:12;;;;;;;;;0.50;0.50;;;;;32.05;71.06;101607.19;5037795;28;45597;-67
2021/07/22 06:41:37;;;;;;;;;0.00;0.00;;;;;32.46;69.77;101610.66;5030437;28;45379;-66
2021/07/22 06:44:02;;;;;;;;;0.00;0.00;;;;;32.73;67.96;101606.53;5038242;28;45256;-67
2021/07/22 06:46:28;;;;;;;;;0.00;0.00;;;;;32.94;67.77;101603.06;5028465;28;45295;-66
2021/07/22 06:48:54;;;;;;;;;0.00;0.00;;;;;33.15;66.78;101601.47;5028066;28;45455;-68
2021/07/22 06:51:20;;;;;;;;;0.00;0.00;;;;;33.49;64.28;101612.31;5023370;28;47238;-67
2021/07/22 06:53:46;;;;;;;;;0.00;0.00;;;;;33.77;63.74;101616.78;5042589;28;45890;-67
2021/07/22 06:56:11;;;;;;;;;0.00;0.00;;;;;33.90;60.74;101612.88;5049372;28;45280;-66
2021/07/22 06:58:37;;;;;;;;;0.00;0.00;;;;;33.75;61.05;101616.22;5034724;28;45363;-66
2021/07/22 07:01:04;;;;;;;;;0.00;0.00;;;;;33.55;59.66;101619.47;5029569;28;46831;-67
2021/07/22 07:03:29;;;;;;;;;0.00;0.00;;;;;33.48;59.44;101622.41;5039642;28;45367;-66
2021/07/22 07:05:55;;;;;;;;;0.00;0.00;;;;;33.51;58.33;101624.59;5042201;28;52266;-66
2021/07/22 07:08:20;;;;;;;;;1.00;0.00;;;;;33.43;56.42;101616.84;5040438;28;45462;-66
2021/07/22 07:10:45;;;;;;;;;0.00;0.00;;;;;33.36;57.81;101618.13;5024073;28;47074;-66
2021/07/22 07:13:11;;;;;;;;;0.00;0.00;;;;;33.42;58.74;101623.41;5042716;28;45320;-66
2021/07/22 07:15:36;;;;;;;;;0.00;0.00;;;;;33.74;58.12;101624.66;5040205;28;45542;-66
2021/07/22 07:18:03;;;;;;;;;0.00;0.00;;;;;33.85;57.05;101626.44;5040235;28;45462;-66
2021/07/22 07:20:29;;;;;;;;;0.00;0.00;;;;;33.87;56.52;101622.38;5041611;28;45506;-67
2021/07/22 07:22:56;;;;;;;;;0.00;0.00;;;;;33.87;54.58;101624.28;5026777;28;46833;-67
2021/07/22 07:25:22;;;;;;;;;0.00;0.00;;;;;33.96;54.38;101621.94;5031825;28;45160;-66
2021/07/22 07:27:47;;;;;;;;;0.00;0.00;;;;;34.12;55.13;101621.03;5045548;28;45323;-66
2021/07/22 07:30:13;;;;;;;;;0.00;0.00;;;;;34.39;54.41;101626.53;5022168;28;45337;-67
2021/07/22 07:32:38;;;;;;;;;0.00;0.00;;;;;34.68;50.69;101621.63;5046789;28;45413;-67
2021/07/22 07:35:04;;;;;;;;;0.00;0.00;;;;;34.90;52.27;101616.09;5041604;28;45500;-66
2021/07/22 07:37:30;;;;;;;;;0.00;0.00;;;;;35.26;51.68;101615.53;5038905;28;45269;-67
2021/07/22 07:39:56;;;;;;;;;0.00;0.00;;;;;35.33;48.38;101619.66;5025457;28;45518;-67
2021/07/22 07:42:21;;;;;;;;;0.00;0.00;;;;;35.39;48.78;101623.25;5035068;28;45331;-67
2021/07/22 07:44:46;;;;;;;;;0.00;0.00;;;;;35.66;48.19;101620.41;5040274;28;45506;-67
2021/07/22 07:47:12;;;;;;;;;0.00;0.00;;;;;35.97;47.67;101620.53;5027166;28;45193;-67
2021/07/22 07:49:37;;;;;;;;;0.00;0.00;;;;;36.42;46.53;101629.16;5034556;28;52606;-67
2021/07/22 07:52:02;;;;;;;;;0.00;0.00;;;;;36.79;42.15;101612.47;5033102;28;49599;-67
2021/07/22 07:54:28;;;;;;;;;0.00;0.00;;;;;36.76;40.96;101618.50;5038088;28;45442;-67
2021/07/22 07:56:53;;;;;;;;;0.00;0.00;;;;;36.75;41.53;101614.94;5041924;28;45578;-67
2021/07/22 07:59:18;;;;;;;;;0.00;0.00;;;;;36.71;41.25;101610.28;5023211;28;45738;-67
2021/07/22 08:01:44;;;;;;;;;0.00;0.00;;;;;36.84;41.65;101611.66;5032132;28;46488;-67
2021/07/22 08:04:10;;;;;;;;;0.00;0.00;;;;;37.03;41.29;101614.66;5033058;28;45332;-67
2021/07/22 08:06:35;;;;;;;;;0.00;0.00;;;;;37.40;42.04;101613.50;5030351;28;45228;-66
2021/07/22 08:09:01;;;;;;;;;0.00;0.00;;;;;37.85;40.94;101612.50;5029422;28;46340;-67
2021/07/22 08:11:27;;;;;;;;;0.00;0.00;;;;;38.16;40.56;101618.66;5041338;28;46251;-67
2021/07/22 08:13:52;;;;;;;;;0.00;0.00;;;;;38.53;38.92;101606.38;5023880;28;45399;-65
2021/07/22 08:16:18;;;;;;;;;0.00;0.00;;;;;38.81;38.61;101608.59;5041200;28;45629;-65
2021/07/22 08:18:45;;;;;;;;;0.00;0.00;;;;;38.97;37.20;101610.13;5020192;28;47459;-65
2021/07/22 08:21:12;;;;;;;;;0.00;0.00;;;;;39.26;36.68;101609.25;5035853;28;45358;-66
2021/07/22 08:23:37;;;;;;;;;0.00;0.00;;;;;39.53;35.88;101604.00;5012694;28;45431;-66
2021/07/22 08:26:05;;;;;;;;;0.00;0.00;;;;;39.84;35.54;101600.88;5026322;28;45375;-66
2021/07/22 08:28:30;;;;;;;;;0.00;0.00;;;;;40.14;34.98;101602.38;5032414;28;46183;-65
2021/07/22 08:30:56;;;;;;;;;0.00;0.00;;;;;40.22;30.10;101609.13;5039829;28;45342;-66
2021/07/22 08:33:21;;;;;;;;;0.00;0.00;;;;;40.01;31.94;101611.38;5033678;28;45444;-66
2021/07/22 08:35:46;;;;;;;;;0.00;0.00;;;;;39.99;29.43;101614.41;5039050;28;45352;-67
2021/07/22 08:38:13;;;;;;;;;1.00;1.00;;;;;39.65;28.76;101611.81;5041048;28;48091;-66
2021/07/22 08:40:41;;;;;;;;;1.00;0.00;;;;;39.50;28.47;101623.81;5032077;28;45436;-65
2021/07/22 08:43:07;;;;;;;;;1.00;0.00;;;;;39.07;29.07;101617.41;5046598;28;45406;-65
2021/07/22 08:45:33;;;;;;;;;0.00;0.00;;;;;38.80;29.69;101618.75;5035422;28;45472;-67
2021/07/22 08:47:58;;;;;;;;;0.00;0.00;;;;;38.84;30.53;101611.59;5010229;28;48291;-67
2021/07/22 08:50:24;;;;;;;;;0.00;0.00;;;;;39.11;31.28;101618.47;5036417;28;45474;-67
2021/07/22 08:52:50;;;;;;;;;0.00;0.00;;;;;39.32;30.30;101608.91;5035455;28;45496;-67
2021/07/22 08:55:16;;;;;;;;;0.00;0.00;;;;;39.57;30.11;101607.81;5040584;28;45415;-66
2021/07/22 08:57:43;;;;;;;;;0.00;0.00;;;;;39.56;30.12;101602.59;5035223;28;46279;-66
2021/07/22 09:00:09;;;;;;;;;0.00;0.00;;;;;39.76;30.02;101607.84;5021144;28;45452;-65
2021/07/22 09:02:34;;;;;;;;;0.00;0.00;;;;;40.21;29.65;101607.50;5032683;28;45465;-65
2021/07/22 09:05:02;;;;;;;;;0.00;0.00;;;;;41.46;29.43;101605.88;5036562;28;45531;-65
2021/07/22 09:07:29;;;;;;;;;0.00;0.00;;;;;43.44;28.65;101614.31;5033631;28;45353;-66
2021/07/22 09:10:03;;;;;;;;;0.00;0.00;;;;;45.51;25.46;101613.53;5026211;28;45399;-66
2021/07/22 09:12:35;;;;;;;;;1.00;1.00;;;;;46.79;21.02;101619.44;5041923;28;45228;-65
2021/07/22 09:15:01;;;;;;;;;0.00;0.00;;;;;47.39;22.25;101618.97;5031689;28;45373;-65
2021/07/22 09:17:27;;;;;;;;;0.00;0.00;;;;;48.43;20.63;101611.72;5034340;28;45571;-66
2021/07/22 09:19:52;;;;;;;;;0.00;0.00;;;;;48.65;19.79;101626.25;5040367;28;45229;-66
2021/07/22 09:22:35;;;;;;;;;0.00;0.00;;;;;48.47;20.38;101614.59;5040774;28;45261;-67
2021/07/22 09:25:02;;;;;;;;;0.25;0.00;;;;;47.69;18.31;101630.66;5026812;28;45401;-67
2021/07/22 09:27:41;;;;;;;;;0.00;0.00;;;;;46.21;19.24;101615.78;5024469;28;47205;-69
2021/07/22 09:30:11;;;;;;;;;0.00;0.00;;;;;45.61;21.05;101628.94;5009727;28;45269;-66
2021/07/22 09:32:39;;;;;;;;;0.00;0.00;;;;;45.30;21.28;101618.22;5020061;28;45328;-66
2021/07/22 09:35:05;;;;;;;;;0.00;0.00;;;;;45.39;20.78;101621.75;5020113;28;45174;-79
2021/07/22 09:37:31;;;;;;;;;1.50;0.75;;;;;46.00;20.65;101613.03;5034541;28;45754;-66
2021/07/22 09:39:56;;;;;;;;;0.00;0.00;;;;;46.92;21.18;101619.47;5031838;28;45419;-65
2021/07/22 09:42:22;;;;;;;;;0.00;0.00;;;;;48.29;18.33;101610.53;5045961;28;45414;-66
2021/07/22 09:44:47;;;;;;;;;0.00;0.00;;;;;49.62;19.08;101612.63;5036558;28;45402;-65
2021/07/22 09:47:25;;;;;;;;;0.00;0.00;;;;;51.21;16.23;101621.97;5021829;28;48509;-66
2021/07/22 09:49:50;;;;;;;;;0.00;0.00;;;;;52.52;17.04;101611.97;5034399;28;45336;-66
2021/07/22 09:52:18;;;;;;;;;0.00;0.00;;;;;53.86;15.60;101601.97;5039274;28;45471;-67
2021/07/22 09:54:44;;;;;;;;;0.00;0.00;;;;;54.76;14.83;101606.91;5033081;28;45460;-67
2021/07/22 09:57:15;;;;;;;;;0.00;0.00;;;;;54.78;13.40;101610.13;5031175;28;46375;-66
2021/07/22 09:59:42;;;;;;;;;0.00;0.00;;;;;54.99;14.61;101610.09;5036964;28;45368;-66
2021/07/22 10:02:16;;;;;;;;;0.00;0.00;;;;;55.25;12.12;101603.19;5029828;28;45427;-65
2021/07/22 10:04:44;;;;;;;;;0.00;0.00;;;;;54.98;13.26;101605.69;5041826;28;45359;-66
2021/07/22 10:07:13;;;;;;;;;0.00;0.00;;;;;54.96;14.03;101601.69;5039207;28;45423;-66
2021/07/22 10:09:41;;;;;;;;;0.00;0.00;;;;;54.84;13.46;101600.09;5042175;28;45312;-64
2021/07/22 10:12:07;;;;;;;;;0.00;0.00;;;;;54.22;13.04;101596.47;5041024;28;45382;-67
2021/07/22 10:14:34;;;;;;;;;0.00;0.00;;;;;53.02;14.16;101587.91;5022172;28;45340;-67
2021/07/22 10:17:03;;;;;;;;;0.50;0.50;;;;;52.16;13.62;101586.38;5031452;28;45547;-67
2021/07/22 10:19:31;;;;;;;;;0.00;0.00;;;;;51.06;15.07;101592.94;5029427;28;45386;-67
2021/07/22 10:21:57;;;;;;;;;0.00;0.00;;;;;49.94;15.37;101589.34;5034880;28;45428;-66
2021/07/22 10:24:23;;;;;;;;;0.00;0.00;;;;;49.05;16.37;101572.28;5033689;28;46328;-68
2021/07/22 10:26:49;;;;;;;;;0.00;0.00;;;;;48.65;16.24;101576.09;5037664;28;45340;-66
2021/07/22 10:29:15;;;;;;;;;0.00;0.00;;;;;48.42;17.55;101578.66;5047009;28;45289;-66
2021/07/22 10:31:44;;;;;;;;;0.00;0.00;;;;;48.20;17.31;101569.69;5038023;28;45391;-69
2021/07/22 10:34:11;;;;;;;;;0.00;0.00;;;;;48.49;17.33;101573.25;5035843;28;45347;-67
2021/07/22 10:36:38;;;;;;;;;0.00;0.00;;;;;49.26;17.97;101574.75;5040627;28;46557;-65
2021/07/22 10:39:03;;;;;;;;;0.00;0.00;;;;;50.72;16.81;101553.66;5050709;28;45310;-69
2021/07/22 10:41:38;;;;;;;;;0.00;0.00;;;;;52.21;15.50;101567.22;5025400;28;45503;-69
2021/07/22 10:44:15;;;;;;;;;0.00;0.00;;;;;53.17;13.06;101554.34;5028140;28;45259;-69
2021/07/22 10:46:56;;;;;;;;;0.00;0.00;;;;;54.19;12.61;101555.09;5025067;28;48322;-69
2021/07/22 10:49:39;;;;;;;;;0.00;0.00;;;;;54.27;13.29;101551.06;5014109;28;45323;-69
2021/07/22 10:52:04;;;;;;;;;0.00;0.00;;;;;54.18;12.00;101566.75;5041174;28;45336;-70
2021/07/22 10:54:39;;;;;;;;;0.00;0.00;;;;;54.33;12.78;101561.91;5040617;28;45468;-68
2021/07/22 10:57:05;;;;;;;;;0.00;0.00;;;;;54.58;12.71;101557.09;5041329;28;45454;-70
2021/07/22 10:59:55;;;;;;;;;0.00;0.00;;;;;54.25;12.88;101549.88;5040440;28;45454;-72
2021/07/22 11:02:41;;;;;;;;;0.00;0.00;;;;;53.04;13.50;101543.44;5038176;28;45474;-71
2021/07/22 11:05:08;;;;;;;;;0.00;0.00;;;;;51.47;14.58;101548.38;5038984;28;45506;-72
2021/07/22 11:07:34;;;;;;;;;0.00;0.00;;;;;50.13;15.28;101541.88;5038331;28;45667;-69
2021/07/22 11:09:59;;;;;;;;;0.00;0.00;;;;;49.30;16.55;101538.56;5031860;28;45728;-69
2021/07/22 11:12:38;;;;;;;;;0.00;0.00;;;;;48.22;16.26;101547.88;5040656;28;46913;-68
2021/07/22 11:15:08;;;;;;;;;0.00;0.00;;;;;47.45;17.17;101542.47;5023037;28;45439;-70
2021/07/22 11:17:35;;;;;;;;;0.00;0.00;;;;;46.79;17.16;101547.19;5039249;28;46224;-68
2021/07/22 11:20:19;;;;;;;;;0.00;0.00;;;;;46.30;18.27;101537.94;5040670;28;45599;-67